sensor_id;sensor_type;location;lat;lon;timestamp;P1;durP1;ratioP1;P2;durP2;ratioP2
23712;SDS011;12035;49.978;8.298;2024-03-02T00:00:24;5.80;;;3.10;;
23712;SDS011;12035;49.978;8.298;2024-03-02T00:05:22;6.95;;;3.58;;
23712;SDS011;12035;49.978;8.298;2024-03-02T00:10:19;6.63;;;3.42;;
23712;SDS011;12035;49.978;8.298;2024-03-02T00:15:28;6.85;;;4.00;;
23712;SDS011;12035;49.978;8.298;2024-03-02T00:20:37;7.32;;;4.32;;
23712;SDS011;12035;49.978;8.298;2024-03-02T00:25:36;7.25;;;4.07;;
23712;SDS011;12035;49.978;8.298;2024-03-02T00:35:59;6.05;;;3.95;;
23712;SDS011;12035;49.978;8.298;2024-03-02T00:40:58;7.75;;;4.25;;
23712;SDS011;12035;49.978;8.298;2024-03-02T00:45:59;5.80;;;3.65;;
23712;SDS011;12035;49.978;8.298;2024-03-02T00:50:57;7.05;;;3.53;;
23712;SDS011;12035;49.978;8.298;2024-03-02T00:55:54;9.00;;;4.70;;
23712;SDS011;12035;49.978;8.298;2024-03-02T01:00:51;6.97;;;4.20;;
23712;SDS011;12035;49.978;8.298;2024-03-02T01:05:50;7.28;;;4.43;;
23712;SDS011;12035;49.978;8.298;2024-03-02T01:10:47;6.57;;;4.03;;
23712;SDS011;12035;49.978;8.298;2024-03-02T01:15:44;5.90;;;3.70;;
23712;SDS011;12035;49.978;8.298;2024-03-02T01:20:41;7.35;;;3.83;;
23712;SDS011;12035;49.978;8.298;2024-03-02T01:25:39;7.93;;;4.10;;
23712;SDS011;12035;49.978;8.298;2024-03-02T01:30:37;11.60;;;4.85;;
23712;SDS011;12035;49.978;8.298;2024-03-02T01:35:34;8.98;;;4.53;;
23712;SDS011;12035;49.978;8.298;2024-03-02T01:40:31;9.30;;;4.22;;
23712;SDS011;12035;49.978;8.298;2024-03-02T01:45:30;9.98;;;3.83;;
23712;SDS011;12035;49.978;8.298;2024-03-02T01:50:28;8.77;;;3.90;;
23712;SDS011;12035;49.978;8.298;2024-03-02T01:55:28;8.05;;;3.67;;
23712;SDS011;12035;49.978;8.298;2024-03-02T02:00:25;9.25;;;4.38;;
23712;SDS011;12035;49.978;8.298;2024-03-02T02:05:24;7.70;;;3.78;;
23712;SDS011;12035;49.978;8.298;2024-03-02T02:10:21;7.72;;;3.03;;
23712;SDS011;12035;49.978;8.298;2024-03-02T02:15:22;6.70;;;3.85;;
23712;SDS011;12035;49.978;8.298;2024-03-02T02:20:20;7.70;;;3.00;;
23712;SDS011;12035;49.978;8.298;2024-03-02T02:25:20;7.45;;;3.63;;
23712;SDS011;12035;49.978;8.298;2024-03-02T02:30:20;7.25;;;4.13;;
23712;SDS011;12035;49.978;8.298;2024-03-02T02:35:19;7.00;;;3.97;;
23712;SDS011;12035;49.978;8.298;2024-03-02T02:40:17;6.50;;;3.80;;
23712;SDS011;12035;49.978;8.298;2024-03-02T02:45:16;6.22;;;4.05;;
23712;SDS011;12035;49.978;8.298;2024-03-02T02:50:14;9.32;;;4.07;;
23712;SDS011;12035;49.978;8.298;2024-03-02T02:55:12;7.25;;;3.80;;
23712;SDS011;12035;49.978;8.298;2024-03-02T03:00:11;9.23;;;4.68;;
23712;SDS011;12035;49.978;8.298;2024-03-02T03:05:13;8.82;;;4.35;;
23712;SDS011;12035;49.978;8.298;2024-03-02T03:10:10;5.75;;;3.42;;
23712;SDS011;12035;49.978;8.298;2024-03-02T03:15:08;7.72;;;3.95;;
23712;SDS011;12035;49.978;8.298;2024-03-02T03:20:06;8.60;;;3.85;;
23712;SDS011;12035;49.978;8.298;2024-03-02T03:25:07;7.90;;;4.43;;
23712;SDS011;12035;49.978;8.298;2024-03-02T03:30:05;7.60;;;2.97;;
23712;SDS011;12035;49.978;8.298;2024-03-02T03:35:03;9.88;;;3.95;;
23712;SDS011;12035;49.978;8.298;2024-03-02T03:40:02;6.05;;;3.20;;
23712;SDS011;12035;49.978;8.298;2024-03-02T03:45:07;6.53;;;2.97;;
23712;SDS011;12035;49.978;8.298;2024-03-02T03:50:05;6.00;;;3.55;;
23712;SDS011;12035;49.978;8.298;2024-03-02T03:55:03;6.60;;;3.50;;
23712;SDS011;12035;49.978;8.298;2024-03-02T04:00:09;8.50;;;3.90;;
23712;SDS011;12035;49.978;8.298;2024-03-02T04:05:07;7.07;;;4.22;;
23712;SDS011;12035;49.978;8.298;2024-03-02T04:10:06;5.82;;;3.20;;
23712;SDS011;12035;49.978;8.298;2024-03-02T04:15:05;5.10;;;2.95;;
23712;SDS011;12035;49.978;8.298;2024-03-02T04:20:06;6.75;;;3.17;;
23712;SDS011;12035;49.978;8.298;2024-03-02T04:25:04;6.53;;;3.28;;
23712;SDS011;12035;49.978;8.298;2024-03-02T04:30:03;6.43;;;3.78;;
23712;SDS011;12035;49.978;8.298;2024-03-02T04:35:03;8.23;;;3.80;;
23712;SDS011;12035;49.978;8.298;2024-03-02T04:40:03;6.50;;;3.92;;
23712;SDS011;12035;49.978;8.298;2024-03-02T04:45:03;7.95;;;3.95;;
23712;SDS011;12035;49.978;8.298;2024-03-02T04:50:01;7.20;;;3.90;;
23712;SDS011;12035;49.978;8.298;2024-03-02T04:55:00;7.28;;;4.15;;
23712;SDS011;12035;49.978;8.298;2024-03-02T05:00:24;11.27;;;4.43;;
23712;SDS011;12035;49.978;8.298;2024-03-02T05:05:23;7.15;;;4.20;;
23712;SDS011;12035;49.978;8.298;2024-03-02T05:10:21;6.47;;;4.05;;
23712;SDS011;12035;49.978;8.298;2024-03-02T05:15:19;10.05;;;4.43;;
23712;SDS011;12035;49.978;8.298;2024-03-02T05:20:16;8.48;;;3.83;;
23712;SDS011;12035;49.978;8.298;2024-03-02T05:25:15;9.05;;;4.43;;
23712;SDS011;12035;49.978;8.298;2024-03-02T05:30:12;6.07;;;4.00;;
23712;SDS011;12035;49.978;8.298;2024-03-02T05:35:10;7.63;;;4.30;;
23712;SDS011;12035;49.978;8.298;2024-03-02T05:40:08;10.00;;;5.00;;
23712;SDS011;12035;49.978;8.298;2024-03-02T05:45:08;11.50;;;5.32;;
23712;SDS011;12035;49.978;8.298;2024-03-02T05:50:05;8.70;;;4.30;;
23712;SDS011;12035;49.978;8.298;2024-03-02T05:55:03;8.70;;;4.35;;
23712;SDS011;12035;49.978;8.298;2024-03-02T06:00:01;7.93;;;4.13;;
23712;SDS011;12035;49.978;8.298;2024-03-02T06:05:04;6.97;;;3.25;;
23712;SDS011;12035;49.978;8.298;2024-03-02T06:10:02;6.38;;;4.20;;
23712;SDS011;12035;49.978;8.298;2024-03-02T06:15:02;7.18;;;4.10;;
23712;SDS011;12035;49.978;8.298;2024-03-02T06:20:00;7.38;;;3.63;;
23712;SDS011;12035;49.978;8.298;2024-03-02T06:24:59;7.75;;;4.28;;
23712;SDS011;12035;49.978;8.298;2024-03-02T06:29:56;7.57;;;4.75;;
23712;SDS011;12035;49.978;8.298;2024-03-02T06:34:53;7.22;;;4.22;;
23712;SDS011;12035;49.978;8.298;2024-03-02T06:39:50;9.25;;;5.07;;
23712;SDS011;12035;49.978;8.298;2024-03-02T06:44:48;9.52;;;5.35;;
23712;SDS011;12035;49.978;8.298;2024-03-02T06:49:45;8.30;;;5.22;;
23712;SDS011;12035;49.978;8.298;2024-03-02T06:54:42;9.23;;;5.60;;
23712;SDS011;12035;49.978;8.298;2024-03-02T06:59:39;9.60;;;5.57;;
23712;SDS011;12035;49.978;8.298;2024-03-02T07:04:37;10.48;;;6.07;;
23712;SDS011;12035;49.978;8.298;2024-03-02T07:09:35;12.40;;;5.93;;
23712;SDS011;12035;49.978;8.298;2024-03-02T07:14:34;10.32;;;6.90;;
23712;SDS011;12035;49.978;8.298;2024-03-02T07:20:04;13.20;;;7.82;;
23712;SDS011;12035;49.978;8.298;2024-03-02T07:25:03;10.43;;;6.60;;
23712;SDS011;12035;49.978;8.298;2024-03-02T07:30:02;14.68;;;6.85;;
23712;SDS011;12035;49.978;8.298;2024-03-02T07:35:00;13.90;;;7.32;;
23712;SDS011;12035;49.978;8.298;2024-03-02T07:40:00;21.70;;;7.85;;
23712;SDS011;12035;49.978;8.298;2024-03-02T07:44:57;17.80;;;7.38;;
23712;SDS011;12035;49.978;8.298;2024-03-02T07:49:54;20.08;;;8.93;;
23712;SDS011;12035;49.978;8.298;2024-03-02T07:54:51;20.45;;;7.85;;
23712;SDS011;12035;49.978;8.298;2024-03-02T07:59:50;17.42;;;7.93;;
23712;SDS011;12035;49.978;8.298;2024-03-02T08:04:47;16.27;;;7.57;;
23712;SDS011;12035;49.978;8.298;2024-03-02T08:09:45;10.93;;;6.40;;
23712;SDS011;12035;49.978;8.298;2024-03-02T08:14:42;10.05;;;6.65;;
23712;SDS011;12035;49.978;8.298;2024-03-02T08:19:40;10.65;;;6.78;;
23712;SDS011;12035;49.978;8.298;2024-03-02T08:24:42;11.63;;;6.32;;
23712;SDS011;12035;49.978;8.298;2024-03-02T08:29:43;16.27;;;8.18;;
23712;SDS011;12035;49.978;8.298;2024-03-02T08:34:41;14.52;;;7.50;;
23712;SDS011;12035;49.978;8.298;2024-03-02T08:39:39;11.88;;;7.70;;
23712;SDS011;12035;49.978;8.298;2024-03-02T08:44:36;10.32;;;6.47;;
23712;SDS011;12035;49.978;8.298;2024-03-02T08:49:34;14.15;;;8.32;;
23712;SDS011;12035;49.978;8.298;2024-03-02T08:54:33;11.52;;;6.88;;
23712;SDS011;12035;49.978;8.298;2024-03-02T08:59:32;17.65;;;9.13;;
23712;SDS011;12035;49.978;8.298;2024-03-02T09:04:30;14.13;;;7.60;;
23712;SDS011;12035;49.978;8.298;2024-03-02T09:09:27;10.65;;;7.20;;
23712;SDS011;12035;49.978;8.298;2024-03-02T09:14:25;9.68;;;6.55;;
23712;SDS011;12035;49.978;8.298;2024-03-02T09:19:22;12.02;;;7.18;;
23712;SDS011;12035;49.978;8.298;2024-03-02T09:24:19;11.98;;;7.88;;
23712;SDS011;12035;49.978;8.298;2024-03-02T09:29:16;11.13;;;7.55;;
23712;SDS011;12035;49.978;8.298;2024-03-02T09:34:17;12.02;;;7.65;;
23712;SDS011;12035;49.978;8.298;2024-03-02T09:39:14;11.10;;;7.68;;
23712;SDS011;12035;49.978;8.298;2024-03-02T09:44:13;27.92;;;7.45;;
23712;SDS011;12035;49.978;8.298;2024-03-02T09:49:10;11.80;;;6.95;;
23712;SDS011;12035;49.978;8.298;2024-03-02T09:54:09;12.30;;;6.93;;
23712;SDS011;12035;49.978;8.298;2024-03-02T09:59:08;11.57;;;7.10;;
23712;SDS011;12035;49.978;8.298;2024-03-02T10:04:05;13.75;;;7.22;;
23712;SDS011;12035;49.978;8.298;2024-03-02T10:09:02;13.55;;;7.97;;
23712;SDS011;12035;49.978;8.298;2024-03-02T10:14:05;11.00;;;7.15;;
23712;SDS011;12035;49.978;8.298;2024-03-02T10:19:14;14.98;;;7.88;;
23712;SDS011;12035;49.978;8.298;2024-03-02T10:24:13;11.18;;;7.55;;
23712;SDS011;12035;49.978;8.298;2024-03-02T10:29:12;12.60;;;7.40;;
23712;SDS011;12035;49.978;8.298;2024-03-02T10:34:09;15.38;;;8.00;;
23712;SDS011;12035;49.978;8.298;2024-03-02T10:39:08;17.98;;;7.88;;
23712;SDS011;12035;49.978;8.298;2024-03-02T10:44:06;12.82;;;7.13;;
23712;SDS011;12035;49.978;8.298;2024-03-02T10:49:05;11.23;;;7.20;;
23712;SDS011;12035;49.978;8.298;2024-03-02T10:54:04;10.18;;;6.40;;
23712;SDS011;12035;49.978;8.298;2024-03-02T10:59:02;12.52;;;6.53;;
23712;SDS011;12035;49.978;8.298;2024-03-02T11:04:07;9.18;;;6.20;;
23712;SDS011;12035;49.978;8.298;2024-03-02T11:09:06;10.98;;;6.40;;
23712;SDS011;12035;49.978;8.298;2024-03-02T11:14:04;11.82;;;6.10;;
23712;SDS011;12035;49.978;8.298;2024-03-02T11:19:04;10.30;;;5.72;;
23712;SDS011;12035;49.978;8.298;2024-03-02T11:29:43;9.88;;;5.25;;
23712;SDS011;12035;49.978;8.298;2024-03-02T11:34:46;11.93;;;6.03;;
23712;SDS011;12035;49.978;8.298;2024-03-02T11:39:45;10.68;;;5.35;;
23712;SDS011;12035;49.978;8.298;2024-03-02T11:44:45;10.20;;;5.93;;
23712;SDS011;12035;49.978;8.298;2024-03-02T11:49:46;9.18;;;6.03;;
23712;SDS011;12035;49.978;8.298;2024-03-02T11:54:47;9.70;;;5.38;;
23712;SDS011;12035;49.978;8.298;2024-03-02T11:59:46;10.20;;;5.55;;
23712;SDS011;12035;49.978;8.298;2024-03-02T12:04:46;9.30;;;4.72;;
23712;SDS011;12035;49.978;8.298;2024-03-02T12:09:44;7.25;;;4.50;;
23712;SDS011;12035;49.978;8.298;2024-03-02T12:14:49;7.82;;;5.20;;
23712;SDS011;12035;49.978;8.298;2024-03-02T12:19:48;7.97;;;5.20;;
23712;SDS011;12035;49.978;8.298;2024-03-02T12:24:48;10.20;;;6.22;;
23712;SDS011;12035;49.978;8.298;2024-03-02T12:29:45;11.32;;;5.82;;
23712;SDS011;12035;49.978;8.298;2024-03-02T12:34:46;9.68;;;6.20;;
23712;SDS011;12035;49.978;8.298;2024-03-02T12:39:44;7.68;;;4.78;;
23712;SDS011;12035;49.978;8.298;2024-03-02T12:44:42;6.85;;;4.45;;
23712;SDS011;12035;49.978;8.298;2024-03-02T12:49:39;7.18;;;4.53;;
23712;SDS011;12035;49.978;8.298;2024-03-02T12:54:38;7.90;;;4.28;;
23712;SDS011;12035;49.978;8.298;2024-03-02T12:59:35;8.40;;;5.60;;
23712;SDS011;12035;49.978;8.298;2024-03-02T13:04:32;4.03;;;2.50;;
23712;SDS011;12035;49.978;8.298;2024-03-02T13:09:29;5.57;;;3.33;;
23712;SDS011;12035;49.978;8.298;2024-03-02T13:14:31;4.82;;;2.55;;
23712;SDS011;12035;49.978;8.298;2024-03-02T13:19:30;4.10;;;2.35;;
23712;SDS011;12035;49.978;8.298;2024-03-02T13:24:27;3.92;;;2.47;;
23712;SDS011;12035;49.978;8.298;2024-03-02T13:29:24;4.65;;;2.53;;
23712;SDS011;12035;49.978;8.298;2024-03-02T13:34:24;5.95;;;2.80;;
23712;SDS011;12035;49.978;8.298;2024-03-02T13:39:21;4.75;;;2.58;;
23712;SDS011;12035;49.978;8.298;2024-03-02T13:44:18;5.75;;;2.50;;
23712;SDS011;12035;49.978;8.298;2024-03-02T13:49:16;5.13;;;2.70;;
23712;SDS011;12035;49.978;8.298;2024-03-02T13:54:15;5.05;;;2.40;;
23712;SDS011;12035;49.978;8.298;2024-03-02T13:59:12;4.28;;;2.10;;
23712;SDS011;12035;49.978;8.298;2024-03-02T14:04:09;3.70;;;2.00;;
23712;SDS011;12035;49.978;8.298;2024-03-02T14:09:06;3.05;;;1.55;;
23712;SDS011;12035;49.978;8.298;2024-03-02T14:14:04;4.57;;;1.77;;
23712;SDS011;12035;49.978;8.298;2024-03-02T14:19:01;2.60;;;1.40;;
23712;SDS011;12035;49.978;8.298;2024-03-02T14:23:59;2.83;;;1.50;;
23712;SDS011;12035;49.978;8.298;2024-03-02T14:28:56;3.35;;;1.92;;
23712;SDS011;12035;49.978;8.298;2024-03-02T14:33:54;5.57;;;1.65;;
23712;SDS011;12035;49.978;8.298;2024-03-02T14:38:51;3.65;;;1.33;;
23712;SDS011;12035;49.978;8.298;2024-03-02T14:43:48;3.97;;;1.40;;
23712;SDS011;12035;49.978;8.298;2024-03-02T14:48:46;2.58;;;1.40;;
23712;SDS011;12035;49.978;8.298;2024-03-02T14:53:44;1.77;;;1.20;;
23712;SDS011;12035;49.978;8.298;2024-03-02T14:58:41;3.45;;;1.60;;
23712;SDS011;12035;49.978;8.298;2024-03-02T15:03:39;3.72;;;1.48;;
23712;SDS011;12035;49.978;8.298;2024-03-02T15:08:36;4.68;;;1.50;;
23712;SDS011;12035;49.978;8.298;2024-03-02T15:13:37;3.63;;;1.40;;
23712;SDS011;12035;49.978;8.298;2024-03-02T15:18:35;2.83;;;1.45;;
23712;SDS011;12035;49.978;8.298;2024-03-02T15:23:32;3.33;;;1.80;;
23712;SDS011;12035;49.978;8.298;2024-03-02T15:28:29;3.80;;;2.00;;
23712;SDS011;12035;49.978;8.298;2024-03-02T15:33:27;3.22;;;1.58;;
23712;SDS011;12035;49.978;8.298;2024-03-02T15:38:26;3.03;;;1.55;;
23712;SDS011;12035;49.978;8.298;2024-03-02T15:43:23;6.38;;;1.17;;
23712;SDS011;12035;49.978;8.298;2024-03-02T15:48:20;2.50;;;1.23;;
23712;SDS011;12035;49.978;8.298;2024-03-02T15:53:19;2.92;;;1.52;;
23712;SDS011;12035;49.978;8.298;2024-03-02T15:58:18;4.38;;;1.98;;
23712;SDS011;12035;49.978;8.298;2024-03-02T16:03:15;5.85;;;2.40;;
23712;SDS011;12035;49.978;8.298;2024-03-02T16:08:12;3.60;;;1.67;;
23712;SDS011;12035;49.978;8.298;2024-03-02T16:13:11;4.53;;;2.05;;
23712;SDS011;12035;49.978;8.298;2024-03-02T16:18:08;3.80;;;2.28;;
23712;SDS011;12035;49.978;8.298;2024-03-02T16:23:05;7.32;;;2.85;;
23712;SDS011;12035;49.978;8.298;2024-03-02T16:28:02;4.35;;;2.80;;
23712;SDS011;12035;49.978;8.298;2024-03-02T16:33:01;5.30;;;3.00;;
23712;SDS011;12035;49.978;8.298;2024-03-02T16:37:58;4.65;;;2.85;;
23712;SDS011;12035;49.978;8.298;2024-03-02T16:42:56;3.83;;;2.35;;
23712;SDS011;12035;49.978;8.298;2024-03-02T16:47:56;6.07;;;2.50;;
23712;SDS011;12035;49.978;8.298;2024-03-02T16:52:55;6.55;;;3.47;;
23712;SDS011;12035;49.978;8.298;2024-03-02T16:57:53;7.43;;;4.20;;
23712;SDS011;12035;49.978;8.298;2024-03-02T17:02:50;7.80;;;4.00;;
23712;SDS011;12035;49.978;8.298;2024-03-02T17:07:48;8.55;;;4.35;;
23712;SDS011;12035;49.978;8.298;2024-03-02T17:12:46;6.30;;;3.28;;
23712;SDS011;12035;49.978;8.298;2024-03-02T17:17:43;5.80;;;2.78;;
23712;SDS011;12035;49.978;8.298;2024-03-02T17:22:40;5.18;;;2.80;;
23712;SDS011;12035;49.978;8.298;2024-03-02T17:27:37;5.15;;;2.85;;
23712;SDS011;12035;49.978;8.298;2024-03-02T17:32:36;9.23;;;3.20;;
23712;SDS011;12035;49.978;8.298;2024-03-02T17:37:33;13.02;;;2.83;;
23712;SDS011;12035;49.978;8.298;2024-03-02T17:42:32;10.98;;;3.60;;
23712;SDS011;12035;49.978;8.298;2024-03-02T17:47:29;4.28;;;2.58;;
23712;SDS011;12035;49.978;8.298;2024-03-02T17:52:35;5.40;;;2.88;;
23712;SDS011;12035;49.978;8.298;2024-03-02T17:57:32;4.45;;;2.60;;
23712;SDS011;12035;49.978;8.298;2024-03-02T18:02:29;3.80;;;1.90;;
23712;SDS011;12035;49.978;8.298;2024-03-02T18:07:29;4.25;;;2.50;;
23712;SDS011;12035;49.978;8.298;2024-03-02T18:12:27;5.05;;;2.40;;
23712;SDS011;12035;49.978;8.298;2024-03-02T18:17:24;3.65;;;2.30;;
23712;SDS011;12035;49.978;8.298;2024-03-02T18:22:22;4.60;;;2.00;;
23712;SDS011;12035;49.978;8.298;2024-03-02T18:27:20;4.72;;;2.55;;
23712;SDS011;12035;49.978;8.298;2024-03-02T18:32:17;3.67;;;2.15;;
23712;SDS011;12035;49.978;8.298;2024-03-02T18:37:14;5.15;;;3.20;;
23712;SDS011;12035;49.978;8.298;2024-03-02T18:42:16;9.10;;;5.00;;
23712;SDS011;12035;49.978;8.298;2024-03-02T18:47:15;7.85;;;4.50;;
23712;SDS011;12035;49.978;8.298;2024-03-02T18:52:12;4.55;;;2.72;;
23712;SDS011;12035;49.978;8.298;2024-03-02T18:57:09;5.03;;;3.50;;
23712;SDS011;12035;49.978;8.298;2024-03-02T19:02:06;4.10;;;2.40;;
23712;SDS011;12035;49.978;8.298;2024-03-02T19:07:04;6.00;;;2.78;;
23712;SDS011;12035;49.978;8.298;2024-03-02T19:12:02;4.90;;;2.92;;
23712;SDS011;12035;49.978;8.298;2024-03-02T19:16:59;4.60;;;2.22;;
23712;SDS011;12035;49.978;8.298;2024-03-02T19:21:57;5.72;;;2.72;;
23712;SDS011;12035;49.978;8.298;2024-03-02T19:26:55;3.85;;;2.30;;
23712;SDS011;12035;49.978;8.298;2024-03-02T19:31:52;4.97;;;2.92;;
23712;SDS011;12035;49.978;8.298;2024-03-02T19:36:49;8.40;;;5.32;;
23712;SDS011;12035;49.978;8.298;2024-03-02T19:41:49;4.47;;;2.88;;
23712;SDS011;12035;49.978;8.298;2024-03-02T19:46:47;6.07;;;3.38;;
23712;SDS011;12035;49.978;8.298;2024-03-02T19:51:44;6.10;;;3.53;;
23712;SDS011;12035;49.978;8.298;2024-03-02T19:56:41;10.63;;;5.60;;
23712;SDS011;12035;49.978;8.298;2024-03-02T20:01:40;9.82;;;5.22;;
23712;SDS011;12035;49.978;8.298;2024-03-02T20:06:38;11.98;;;6.35;;
23712;SDS011;12035;49.978;8.298;2024-03-02T20:11:36;16.45;;;8.52;;
23712;SDS011;12035;49.978;8.298;2024-03-02T20:16:33;11.80;;;7.07;;
23712;SDS011;12035;49.978;8.298;2024-03-02T20:21:30;7.80;;;5.03;;
23712;SDS011;12035;49.978;8.298;2024-03-02T20:26:28;9.10;;;6.80;;
23712;SDS011;12035;49.978;8.298;2024-03-02T20:31:25;5.88;;;4.18;;
23712;SDS011;12035;49.978;8.298;2024-03-02T20:36:22;5.55;;;3.50;;
23712;SDS011;12035;49.978;8.298;2024-03-02T20:41:19;23.25;;;14.55;;
23712;SDS011;12035;49.978;8.298;2024-03-02T20:46:18;13.23;;;10.15;;
23712;SDS011;12035;49.978;8.298;2024-03-02T20:51:15;8.90;;;5.10;;
23712;SDS011;12035;49.978;8.298;2024-03-02T20:56:12;8.90;;;4.97;;
23712;SDS011;12035;49.978;8.298;2024-03-02T21:01:10;9.25;;;5.22;;
23712;SDS011;12035;49.978;8.298;2024-03-02T21:06:09;8.13;;;5.47;;
23712;SDS011;12035;49.978;8.298;2024-03-02T21:11:06;10.77;;;6.25;;
23712;SDS011;12035;49.978;8.298;2024-03-02T21:16:04;7.53;;;5.25;;
23712;SDS011;12035;49.978;8.298;2024-03-02T21:21:04;8.23;;;5.70;;
23712;SDS011;12035;49.978;8.298;2024-03-02T21:26:03;9.20;;;5.70;;
23712;SDS011;12035;49.978;8.298;2024-03-02T21:31:00;9.65;;;6.05;;
23712;SDS011;12035;49.978;8.298;2024-03-02T21:35:57;10.45;;;6.10;;
23712;SDS011;12035;49.978;8.298;2024-03-02T21:40:54;9.77;;;6.40;;
23712;SDS011;12035;49.978;8.298;2024-03-02T21:45:52;11.60;;;7.47;;
23712;SDS011;12035;49.978;8.298;2024-03-02T21:50:49;10.10;;;6.88;;
23712;SDS011;12035;49.978;8.298;2024-03-02T21:55:47;11.00;;;7.22;;
23712;SDS011;12035;49.978;8.298;2024-03-02T22:00:44;12.55;;;7.78;;
23712;SDS011;12035;49.978;8.298;2024-03-02T22:05:42;12.52;;;8.18;;
23712;SDS011;12035;49.978;8.298;2024-03-02T22:10:39;11.63;;;7.55;;
23712;SDS011;12035;49.978;8.298;2024-03-02T22:15:36;13.18;;;8.25;;
23712;SDS011;12035;49.978;8.298;2024-03-02T22:20:34;11.40;;;7.55;;
23712;SDS011;12035;49.978;8.298;2024-03-02T22:25:33;14.57;;;8.73;;
23712;SDS011;12035;49.978;8.298;2024-03-02T22:30:30;13.40;;;8.68;;
23712;SDS011;12035;49.978;8.298;2024-03-02T22:35:27;12.45;;;8.25;;
23712;SDS011;12035;49.978;8.298;2024-03-02T22:40:24;13.00;;;7.65;;
23712;SDS011;12035;49.978;8.298;2024-03-02T22:45:23;16.63;;;8.88;;
23712;SDS011;12035;49.978;8.298;2024-03-02T22:50:20;15.45;;;8.68;;
23712;SDS011;12035;49.978;8.298;2024-03-02T22:55:18;13.48;;;8.70;;
23712;SDS011;12035;49.978;8.298;2024-03-02T23:00:15;14.75;;;8.68;;
23712;SDS011;12035;49.978;8.298;2024-03-02T23:05:27;13.93;;;8.43;;
23712;SDS011;12035;49.978;8.298;2024-03-02T23:10:25;15.02;;;8.95;;
23712;SDS011;12035;49.978;8.298;2024-03-02T23:15:22;16.30;;;8.98;;
23712;SDS011;12035;49.978;8.298;2024-03-02T23:20:24;14.98;;;9.15;;
23712;SDS011;12035;49.978;8.298;2024-03-02T23:25:23;14.43;;;8.05;;
23712;SDS011;12035;49.978;8.298;2024-03-02T23:30:20;15.68;;;9.23;;
23712;SDS011;12035;49.978;8.298;2024-03-02T23:35:17;13.20;;;8.18;;
23712;SDS011;12035;49.978;8.298;2024-03-02T23:40:15;14.30;;;8.60;;
23712;SDS011;12035;49.978;8.298;2024-03-02T23:45:41;14.43;;;9.45;;
23712;SDS011;12035;49.978;8.298;2024-03-02T23:50:38;14.77;;;8.52;;
23712;SDS011;12035;49.978;8.298;2024-03-02T23:55:35;15.43;;;8.38;;
